Time;durP1;ratioP1;P1;durP2;ratioP2;P2;SDS_P1;SDS_P2;PMS_P1;PMS_P2;Temp;Humidity;BMP_temperature;BMP_pressure;BME280_temperature;BME280_humidity;BME280_pressure;Samples;Min_cycle;Max_cycle;Signal;HPM_P1;HPM_P2
2023/06/06 00:00:11;;;;;;;3.97;2.50;;;15.30;92.50;;;16.02;81.83;98183.25;5023314;28;20474;-80
2023/06/06 00:02:44;;;;;;;5.90;2.40;;;15.20;92.80;;;15.96;81.86;98181.50;5023173;28;20466;-80
2023/06/06 00:05:14;;;;;;;3.03;2.30;;;15.20;92.70;;;15.90;82.61;98177.88;5021651;28;20473;-80
2023/06/06 00:07:46;;;;;;;3.00;2.00;;;15.20;92.70;;;15.83;82.91;98190.31;5024386;28;20967;-80
2023/06/06 00:10:17;;;;;;;4.07;2.10;;;15.10;92.70;;;15.79;83.20;98181.22;5022239;28;20478;-80
2023/06/06 00:12:47;;;;;;;4.20;2.00;;;15.00;92.90;;;15.78;83.38;98186.72;5022930;28;20462;-80
2023/06/06 00:15:17;;;;;;;4.07;2.10;;;15.00;93.10;;;15.72;83.75;98183.16;5024949;28;20500;-80
2023/06/06 00:17:55;;;;;;;5.93;2.53;;;15.00;92.90;;;15.66;84.13;98170.81;5024734;28;20580;-80
2023/06/06 00:20:24;;;;;;;5.10;2.00;;;14.90;93.20;;;15.64;84.32;98185.22;5021394;28;20707;-80
2023/06/06 00:22:53;;;;;;;5.57;2.33;;;14.90;93.00;;;15.60;84.68;98190.94;5022413;28;20462;-81
2023/06/06 00:25:23;;;;;;;3.40;2.00;;;14.80;93.00;;;15.58;84.81;98187.69;5022097;28;20470;-81
2023/06/06 00:27:52;;;;;;;4.67;2.90;;;14.80;93.40;;;15.55;85.44;98177.56;5022626;28;20486;-81
2023/06/06 00:30:21;;;;;;;2.50;2.10;;;14.80;93.60;;;15.56;84.87;98186.31;5022207;28;20458;-80
2023/06/06 00:32:51;;;;;;;4.43;2.33;;;14.80;93.40;;;15.53;85.34;98184.91;5021913;28;20474;-80
2023/06/06 00:35:20;;;;;;;3.63;1.90;;;14.70;93.30;;;15.50;85.25;98185.34;5023215;28;20601;-81
2023/06/06 00:37:49;;;;;;;3.63;2.30;;;14.70;93.20;;;15.44;85.42;98183.53;5024402;28;20504;-80
2023/06/06 00:40:17;;;;;;;5.53;2.33;;;14.70;93.50;;;15.41;85.77;98183.16;5025520;28;20500;-80
2023/06/06 00:42:46;;;;;;;3.17;1.70;;;14.60;93.30;;;15.37;85.83;98185.41;5022040;28;20477;-80
2023/06/06 00:45:14;;;;;;;3.50;2.30;;;14.60;93.40;;;15.35;86.43;98176.09;5022241;28;20539;-80
2023/06/06 00:47:44;;;;;;;4.00;2.07;;;14.60;93.60;;;15.32;86.32;98177.34;5024166;28;20492;-80
2023/06/06 00:50:15;;;;;;;4.93;2.23;;;14.50;93.50;;;15.26;86.86;98183.47;5024528;28;20470;-81
2023/06/06 00:52:49;;;;;;;4.80;2.50;;;14.50;93.50;;;15.24;87.14;98179.44;5022422;28;20472;-80
2023/06/06 00:55:22;;;;;;;5.27;2.60;;;14.50;93.70;;;15.23;87.45;98183.91;5023406;28;20890;-80
2023/06/06 00:57:52;;;;;;;2.87;1.90;;;14.40;93.70;;;15.21;87.34;98185.91;5024242;28;20493;-80
2023/06/06 01:00:22;;;;;;;6.47;2.10;;;14.40;93.60;;;15.17;87.42;98184.72;5021510;28;20821;-80
2023/06/06 01:02:52;;;;;;;4.10;2.47;;;14.40;93.90;;;15.13;87.70;98194.88;5022241;28;20466;-80
2023/06/06 01:05:23;;;;;;;3.63;2.23;;;14.40;93.70;;;15.08;88.31;98188.63;5021670;28;20992;-80
2023/06/06 01:07:53;;;;;;;5.00;2.40;;;14.40;93.80;;;15.07;88.33;98190.47;5022380;28;20916;-80
2023/06/06 01:10:23;;;;;;;3.30;1.97;;;14.30;93.90;;;15.07;88.35;98189.66;5023233;28;20482;-80
2023/06/06 01:13:06;;;;;;;2.73;1.80;;;14.30;94.00;;;15.02;88.47;98184.22;5023898;28;20470;-80
2023/06/06 01:15:45;;;;;;;2.80;2.00;;;14.30;94.00;;;14.99;89.00;98189.91;5021649;28;20457;-81
2023/06/06 01:18:14;;;;;;;2.23;1.77;;;14.30;93.90;;;14.95;89.09;98188.72;5023849;28;21011;-80
2023/06/06 01:20:45;;;;;;;2.90;2.00;;;14.20;94.00;;;14.93;89.18;98193.38;5024612;28;20999;-80
2023/06/06 01:23:16;;;;;;;4.30;1.70;;;14.20;94.00;;;14.91;89.22;98195.41;5021976;28;20470;-80
2023/06/06 01:25:47;;;;;;;4.43;2.07;;;14.20;94.20;;;14.83;89.67;98193.03;5022412;28;20492;-80
2023/06/06 01:28:17;;;;;;;4.83;1.90;;;14.10;94.00;;;14.76;90.43;98200.94;5025637;28;20454;-80
2023/06/06 01:30:47;;;;;;;3.07;2.30;;;14.10;94.10;;;14.73;91.03;98203.19;5024701;28;20462;-80
2023/06/06 01:33:32;;;;;;;2.10;1.80;;;14.00;94.30;;;14.68;91.22;98206.47;5024694;28;20493;-80
2023/06/06 01:36:17;;;;;;;8.60;2.20;;;14.00;94.30;;;14.65;91.57;98204.22;5023168;28;20464;-80
2023/06/06 01:38:55;;;;;;;3.03;2.33;;;14.00;94.50;;;14.61;91.86;98201.22;5027398;28;20486;-80
2023/06/06 01:41:25;;;;;;;3.70;2.00;;;13.90;94.40;;;14.58;92.14;98199.00;5028179;28;20560;-80
2023/06/06 01:43:56;;;;;;;4.23;2.17;;;13.90;94.60;;;14.59;92.42;98203.25;5026038;28;20512;-80
2023/06/06 01:46:27;;;;;;;3.73;2.30;;;13.80;94.60;;;14.54;92.54;98197.00;5025994;28;20489;-80
2023/06/06 01:48:57;;;;;;;7.33;2.20;;;13.90;94.60;;;14.49;93.13;98200.25;5024504;28;20474;-80
2023/06/06 01:51:27;;;;;;;2.73;2.40;;;13.80;94.60;;;14.48;93.16;98206.53;5024479;28;20720;-80
2023/06/06 01:54:00;;;;;;;3.10;2.13;;;13.80;94.70;;;14.50;93.33;98204.53;5024602;28;20952;-80
2023/06/06 01:56:33;;;;;;;3.47;2.30;;;13.70;95.00;;;14.49;92.93;98208.16;5025096;28;20466;-80
2023/06/06 01:59:02;;;;;;;6.70;2.30;;;13.70;94.80;;;14.43;93.24;98203.72;5025348;28;20501;-80
2023/06/06 02:01:31;;;;;;;8.23;2.20;;;13.70;94.70;;;14.39;93.58;98205.16;5021882;28;20471;-81
2023/06/06 02:04:00;;;;;;;4.70;2.37;;;13.70;94.80;;;14.35;94.33;98206.56;5024744;28;20483;-80
2023/06/06 02:06:30;;;;;;;3.13;2.10;;;13.60;95.30;;;14.29;94.76;98201.31;5025460;28;20465;-81
2023/06/06 02:09:01;;;;;;;3.33;2.47;;;13.60;95.00;;;14.21;95.56;98209.41;5022214;28;20478;-80
2023/06/06 02:11:31;;;;;;;4.03;2.20;;;13.60;95.00;;;14.19;96.04;98216.72;5023941;28;20506;-80
2023/06/06 02:13:59;;;;;;;5.37;2.10;;;13.50;95.10;;;14.16;96.28;98217.91;5026361;28;20516;-81
2023/06/06 02:16:32;;;;;;;5.00;2.57;;;13.50;95.30;;;14.15;96.45;98216.31;5023893;28;20492;-81
2023/06/06 02:19:01;;;;;;;5.80;2.10;;;13.50;95.40;;;14.15;96.94;98216.31;5024910;28;20521;-80
2023/06/06 02:21:29;;;;;;;4.83;2.27;;;13.40;95.30;;;14.16;96.58;98202.13;5022583;28;20885;-80
2023/06/06 02:23:59;;;;;;;5.20;2.47;;;13.40;95.70;;;14.14;96.63;98204.16;5023779;28;20462;-80
2023/06/06 02:26:28;;;;;;;5.50;2.20;;;13.40;95.30;;;14.13;96.88;98218.31;5025624;28;20470;-81
2023/06/06 02:28:57;;;;;;;2.63;2.10;;;13.40;95.40;;;14.12;96.69;98216.72;5026181;28;20458;-80
2023/06/06 02:31:26;;;;;;;7.10;2.33;;;13.40;95.40;;;14.11;96.54;98218.53;5022044;28;20466;-80
2023/06/06 02:33:56;;;;;;;3.43;2.30;;;13.40;95.40;;;14.09;96.96;98214.50;5025109;28;20461;-81
2023/06/06 02:36:25;;;;;;;8.80;2.50;;;13.40;95.50;;;14.05;97.44;98215.94;5025843;28;20500;-80
2023/06/06 02:38:55;;;;;;;13.53;2.30;;;13.40;95.50;;;14.05;97.87;98215.94;5010356;28;20504;-80
2023/06/06 02:41:26;;;;;;;8.03;2.80;;;13.30;95.60;;;14.06;97.91;98217.53;5025322;28;20466;-80
2023/06/06 02:43:55;;;;;;;3.50;2.13;;;13.30;95.60;;;14.04;98.37;98220.38;5026937;28;20466;-80
2023/06/06 02:46:24;;;;;;;3.13;2.23;;;13.30;95.60;;;14.01;98.17;98219.97;5025594;28;20490;-81
2023/06/06 02:48:53;;;;;;;3.17;2.20;;;13.30;95.60;;;13.98;98.70;98215.13;5026554;28;20968;-80
2023/06/06 02:51:23;;;;;;;4.63;2.47;;;13.30;95.80;;;13.96;99.19;98217.13;5024660;28;20497;-80
2023/06/06 02:53:52;;;;;;;2.40;2.00;;;13.20;95.80;;;13.97;99.32;98221.38;5026135;28;20470;-81
2023/06/06 02:56:21;;;;;;;4.30;2.73;;;13.30;96.00;;;13.98;99.36;98220.38;5025641;28;20584;-80
2023/06/06 02:58:52;;;;;;;2.77;2.13;;;13.20;96.00;;;13.99;99.32;98222.78;5024690;28;20494;-80
2023/06/06 03:01:21;;;;;;;3.80;2.23;;;13.20;96.00;;;13.98;99.38;98221.19;5022600;28;20462;-80
2023/06/06 03:03:50;;;;;;;2.50;1.83;;;13.20;96.00;;;13.98;99.58;98215.94;5024797;28;20528;-80
2023/06/06 03:06:21;;;;;;;3.60;2.20;;;13.20;96.20;;;13.97;99.23;98218.75;5023189;28;20461;-80
2023/06/06 03:08:55;;;;;;;3.27;2.30;;;13.20;96.10;;;13.96;99.15;98214.50;5022573;28;20510;-79
2023/06/06 03:11:25;;;;;;;5.60;2.73;;;13.20;96.10;;;13.96;99.46;98219.75;5024429;28;21155;-81
2023/06/06 03:13:55;;;;;;;3.63;2.33;;;13.20;96.20;;;13.95;99.46;98210.28;5021897;28;21794;-80
2023/06/06 03:16:26;;;;;;;3.33;2.07;;;13.10;96.30;;;13.96;99.33;98217.94;5023671;28;20473;-80
2023/06/06 03:18:55;;;;;;;3.60;2.30;;;13.10;96.10;;;13.96;99.22;98223.22;5025354;28;20497;-77
2023/06/06 03:21:24;;;;;;;4.30;2.63;;;13.10;96.10;;;13.95;99.41;98226.84;5022677;28;20524;-80
2023/06/06 03:23:54;;;;;;;3.17;2.20;;;13.20;96.10;;;13.95;99.74;98226.06;5022392;28;20488;-81
2023/06/06 03:26:26;;;;;;;5.43;2.90;;;13.10;96.20;;;13.94;99.62;98225.25;5025153;28;20482;-80
2023/06/06 03:28:57;;;;;;;4.10;2.87;;;13.10;96.10;;;13.94;99.78;98227.06;5025886;28;20462;-80
2023/06/06 03:31:29;;;;;;;3.43;2.20;;;13.10;96.20;;;13.92;99.78;98229.88;5024556;28;20470;-80
2023/06/06 03:33:58;;;;;;;2.80;2.30;;;13.10;96.30;;;13.93;100.00;98230.69;5024675;28;20516;-80
2023/06/06 03:36:32;;;;;;;6.73;2.47;;;13.10;96.40;;;13.95;100.00;98231.31;5025440;28;20470;-79
2023/06/06 03:39:03;;;;;;;2.60;2.03;;;13.10;96.70;;;13.96;99.84;98227.66;5023726;28;20543;-80
2023/06/06 03:41:31;;;;;;;3.67;2.70;;;13.10;96.50;;;13.95;99.69;98226.84;5024169;28;20474;-79
2023/06/06 03:44:02;;;;;;;3.07;2.50;;;13.10;96.30;;;13.93;99.89;98233.31;5024756;28;21063;-80
2023/06/06 03:46:31;;;;;;;2.60;1.97;;;13.10;96.40;;;13.90;100.00;98228.47;5023890;28;20478;-80
2023/06/06 03:48:59;;;;;;;3.53;2.20;;;13.10;96.30;;;13.86;100.00;98232.50;5025348;28;20462;-77
2023/06/06 03:51:28;;;;;;;4.47;2.40;;;13.10;96.40;;;13.84;100.00;98234.56;5024591;28;20481;-80
2023/06/06 03:53:56;;;;;;;4.07;2.30;;;13.10;96.50;;;13.83;100.00;98235.56;5025029;28;20469;-80
2023/06/06 03:56:27;;;;;;;4.77;2.20;;;13.00;96.50;;;13.82;100.00;98237.38;5025148;28;20454;-80
2023/06/06 03:58:56;;;;;;;10.20;2.63;;;13.10;96.50;;;13.81;100.00;98232.34;5025532;28;20512;-80
2023/06/06 04:01:31;;;;;;;5.33;2.67;;;13.10;96.50;;;13.82;100.00;98241.81;5025416;28;20462;-80
2023/06/06 04:03:59;;;;;;;11.60;3.17;;;13.10;96.70;;;13.82;100.00;98234.75;5023598;28;20465;-81
2023/06/06 04:06:29;;;;;;;2.90;2.60;;;13.10;96.80;;;13.85;100.00;98220.41;5024566;28;20454;-80
2023/06/06 04:08:58;;;;;;;6.13;2.47;;;13.00;96.90;;;13.85;100.00;98230.91;5024052;28;20850;-79
2023/06/06 04:11:26;;;;;;;3.03;2.17;;;13.10;96.90;;;13.83;100.00;98227.66;5023443;28;20473;-80
2023/06/06 04:13:55;;;;;;;2.80;2.07;;;13.10;96.90;;;13.82;100.00;98226.84;5024229;28;20496;-80
2023/06/06 04:16:26;;;;;;;2.87;2.33;;;13.00;97.00;;;13.83;100.00;98230.28;5023438;28;20548;-79
2023/06/06 04:18:55;;;;;;;3.30;2.43;;;13.00;97.10;;;13.84;100.00;98227.47;5025018;28;20940;-79
2023/06/06 04:21:24;;;;;;;3.50;2.40;;;13.00;97.00;;;13.87;100.00;98234.16;5022825;28;20493;-80
2023/06/06 04:23:54;;;;;;;3.10;2.33;;;13.00;97.50;;;13.89;100.00;98226.84;5023935;28;20550;-79
2023/06/06 04:26:26;;;;;;;3.70;2.40;;;13.00;97.10;;;13.92;100.00;98236.94;5022320;28;20474;-80
2023/06/06 04:28:58;;;;;;;10.90;4.10;;;13.10;97.20;;;13.92;100.00;98236.94;5021799;28;20470;-80
2023/06/06 04:31:30;;;;;;;6.93;3.10;;;13.10;97.10;;;13.90;100.00;98234.53;5021499;28;20475;-80
2023/06/06 04:34:01;;;;;;;3.53;2.40;;;13.10;97.10;;;13.90;100.00;98239.00;5020073;28;20486;-80
2023/06/06 04:36:32;;;;;;;5.27;3.50;;;13.10;97.10;;;13.91;100.00;98240.63;5023105;28;20470;-78
2023/06/06 04:39:03;;;;;;;5.97;2.40;;;13.10;97.30;;;13.92;100.00;98237.75;5020891;28;20498;-80
2023/06/06 04:41:33;;;;;;;3.20;2.50;;;13.20;97.30;;;13.92;100.00;98242.22;5021780;28;20469;-81
2023/06/06 04:44:05;;;;;;;3.70;2.70;;;13.20;97.30;;;13.92;100.00;98239.59;5023315;28;20964;-79
2023/06/06 04:46:36;;;;;;;3.00;2.37;;;13.10;97.50;;;13.93;100.00;98238.59;5025702;28;20481;-80
2023/06/06 04:49:06;;;;;;;7.57;1.97;;;13.10;97.90;;;13.93;100.00;98238.59;5025800;28;20492;-80
2023/06/06 04:51:36;;;;;;;3.87;2.73;;;13.20;97.50;;;13.94;100.00;98240.22;5024847;28;20470;-80
2023/06/06 04:54:07;;;;;;;3.17;2.40;;;13.10;97.90;;;13.97;100.00;98240.59;5025581;28;20476;-80
2023/06/06 04:56:38;;;;;;;5.13;2.50;;;13.10;97.80;;;14.01;100.00;98236.56;5024442;28;20472;-80
2023/06/06 04:59:08;;;;;;;4.80;2.60;;;13.20;97.70;;;14.04;100.00;98235.34;5025388;28;20565;-80
2023/06/06 05:01:41;;;;;;;4.47;2.40;;;13.20;97.70;;;14.05;100.00;98234.34;5027850;28;20536;-79
2023/06/06 05:04:10;;;;;;;3.93;2.53;;;13.20;97.90;;;14.06;100.00;98242.00;5029464;28;20488;-80
2023/06/06 05:06:40;;;;;;;6.07;2.67;;;13.30;97.90;;;14.07;100.00;98248.06;5029643;28;20968;-79
2023/06/06 05:09:08;;;;;;;4.93;2.17;;;13.30;98.30;;;14.08;100.00;98240.00;5028846;28;21003;-80
2023/06/06 05:11:37;;;;;;;5.13;2.30;;;13.30;98.30;;;14.09;100.00;98241.59;5028022;28;20469;-80
2023/06/06 05:14:06;;;;;;;2.40;2.20;;;13.30;98.10;;;14.10;100.00;98242.41;5028881;28;20862;-80
2023/06/06 05:16:35;;;;;;;5.50;2.60;;;13.40;98.20;;;14.05;100.00;98245.66;5028648;28;20531;-80
2023/06/06 05:19:06;;;;;;;3.20;2.37;;;13.40;98.30;;;14.07;100.00;98245.44;5030779;28;20499;-80
2023/06/06 05:21:34;;;;;;;8.73;2.57;;;13.40;98.50;;;14.05;100.00;98243.03;5028445;28;20477;-79
2023/06/06 05:24:04;;;;;;;4.17;2.33;;;13.40;98.50;;;14.04;100.00;98241.41;5028267;28;20476;-80
2023/06/06 05:26:33;;;;;;;5.83;2.50;;;13.40;98.50;;;14.03;100.00;98244.22;5029813;28;20462;-80
2023/06/06 05:29:02;;;;;;;5.60;2.60;;;13.40;98.70;;;14.04;100.00;98246.66;5028549;28;20519;-80
2023/06/06 05:31:33;;;;;;;3.03;2.10;;;13.40;98.80;;;14.07;100.00;98242.81;5028367;28;20461;-80
2023/06/06 05:34:03;;;;;;;4.53;2.83;;;13.40;98.90;;;14.11;100.00;98249.28;5027812;28;20466;-80
2023/06/06 05:36:33;;;;;;;4.40;2.77;;;13.40;99.10;;;14.16;100.00;98254.72;5029886;28;20462;-80
2023/06/06 05:39:03;;;;;;;3.33;2.40;;;13.40;99.30;;;14.22;100.00;98251.31;5027671;28;20557;-80
2023/06/06 05:41:32;;;;;;;5.10;3.00;;;13.50;99.30;;;14.28;100.00;98250.47;5026700;28;20466;-80
2023/06/06 05:44:01;;;;;;;5.73;2.50;;;13.50;99.50;;;14.35;100.00;98253.13;5028925;28;20555;-80
2023/06/06 05:46:30;;;;;;;3.40;2.37;;;13.50;99.40;;;14.39;100.00;98249.88;5027290;28;20486;-80
2023/06/06 05:48:59;;;;;;;4.40;2.80;;;13.60;99.40;;;14.45;100.00;98245.59;5028076;28;20591;-80
2023/06/06 05:51:27;;;;;;;3.53;2.37;;;13.70;99.30;;;14.52;100.00;98249.03;5026324;28;20462;-80
2023/06/06 05:53:58;;;;;;;4.97;2.70;;;13.80;99.30;;;14.58;100.00;98254.28;5028652;28;20458;-80
2023/06/06 05:56:43;;;;;;;3.50;2.80;;;13.80;99.20;;;14.66;100.00;98255.88;5027521;28;20516;-80
2023/06/06 05:59:12;;;;;;;4.33;3.07;;;13.90;99.30;;;14.73;100.00;98261.13;5028273;28;20496;-80
2023/06/06 06:01:43;;;;;;;5.20;2.70;;;13.90;99.50;;;14.80;100.00;98254.81;5025958;28;20482;-80
2023/06/06 06:04:11;;;;;;;5.43;2.80;;;14.00;99.30;;;14.85;100.00;98259.47;5027863;28;20466;-80
2023/06/06 06:06:40;;;;;;;4.97;3.20;;;14.00;99.70;;;14.92;100.00;98257.63;5028208;28;20470;-80
2023/06/06 06:09:11;;;;;;;4.97;3.00;;;14.00;99.60;;;15.00;100.00;98262.63;5028228;28;20480;-80
2023/06/06 06:11:41;;;;;;;3.23;2.90;;;14.10;99.30;;;15.07;100.00;98252.88;5025298;28;20462;-80
2023/06/06 06:14:10;;;;;;;4.40;3.10;;;14.20;99.30;;;15.15;100.00;98257.91;5027786;28;20898;-80
2023/06/06 06:16:40;;;;;;;6.70;2.97;;;14.30;99.20;;;15.21;100.00;98253.59;5026842;28;20472;-80
2023/06/06 06:19:09;;;;;;;4.60;2.53;;;14.40;99.20;;;15.28;100.00;98249.91;5027431;28;20557;-80
2023/06/06 06:21:38;;;;;;;7.50;3.17;;;14.40;99.30;;;15.34;100.00;98249.06;5026012;28;20957;-80
2023/06/06 06:24:09;;;;;;;3.50;2.70;;;14.50;99.30;;;15.39;100.00;98251.88;5027652;28;20462;-80
2023/06/06 06:26:40;;;;;;;7.50;3.10;;;14.50;99.40;;;15.45;100.00;98256.28;5026748;28;20576;-80
2023/06/06 06:29:08;;;;;;;9.33;3.60;;;14.60;99.40;;;15.50;100.00;98259.16;5027883;28;20484;-80
2023/06/06 06:31:37;;;;;;;8.23;2.80;;;14.60;99.30;;;15.58;100.00;98256.22;5027875;28;20466;-80
2023/06/06 06:34:05;;;;;;;4.43;3.03;;;14.70;99.30;;;15.64;100.00;98257.22;5027132;28;20528;-80
2023/06/06 06:36:34;;;;;;;6.43;3.30;;;14.80;99.30;;;15.71;100.00;98263.25;5026852;28;20477;-80
2023/06/06 06:39:04;;;;;;;5.27;3.30;;;14.90;99.30;;;15.78;100.00;98257.94;5026291;28;21222;-80
2023/06/06 06:41:32;;;;;;;4.73;2.90;;;15.00;99.30;;;15.83;100.00;98258.88;5026703;28;20493;-79
2023/06/06 06:44:02;;;;;;;4.97;3.17;;;15.00;99.50;;;15.90;100.00;98258.84;5026311;28;20474;-80
2023/06/06 06:46:31;;;;;;;6.17;3.33;;;15.10;99.80;;;15.97;100.00;98256.94;5025517;28;20489;-80
2023/06/06 06:48:59;;;;;;;17.00;3.83;;;15.10;99.90;;;16.06;100.00;98259.13;5026469;28;20473;-80
2023/06/06 06:51:29;;;;;;;6.93;3.10;;;15.20;99.90;;;16.14;100.00;98258.00;5027240;28;20972;-80
2023/06/06 06:53:58;;;;;;;5.30;3.20;;;15.20;99.90;;;16.26;100.00;98261.56;5010536;28;22412;-80
2023/06/06 06:56:28;;;;;;;6.50;3.50;;;15.40;99.90;;;16.39;100.00;98256.16;5028289;28;20842;-80
2023/06/06 06:58:57;;;;;;;9.53;3.60;;;15.60;99.90;;;16.48;100.00;98264.59;5028262;28;20482;-80
2023/06/06 07:01:27;;;;;;;10.60;3.50;;;15.60;99.90;;;16.55;100.00;98265.34;5026745;28;20573;-80
2023/06/06 07:03:57;;;;;;;3.57;2.97;;;15.70;99.90;;;16.63;100.00;98262.44;5026912;28;20470;-80
2023/06/06 07:06:27;;;;;;;4.80;3.13;;;15.80;99.90;;;16.72;100.00;98262.94;5027327;28;20466;-80
2023/06/06 07:08:55;;;;;;;13.37;3.73;;;15.90;99.90;;;16.82;100.00;98263.25;5025016;28;20485;-80
2023/06/06 07:11:28;;;;;;;4.80;3.10;;;16.00;99.80;;;16.91;100.00;98256.63;5026746;28;20462;-80
2023/06/06 07:13:57;;;;;;;5.43;3.33;;;16.00;99.60;;;17.02;100.00;98261.16;5027550;28;20488;-80
2023/06/06 07:16:28;;;;;;;6.00;3.70;;;16.20;99.50;;;17.11;100.00;98257.97;5027101;28;20932;-80
2023/06/06 07:18:58;;;;;;;3.80;2.63;;;16.40;99.10;;;17.19;100.00;98253.41;5027317;28;20470;-80
2023/06/06 07:21:26;;;;;;;7.53;3.27;;;16.40;99.00;;;17.33;100.00;98260.94;5024788;28;20498;-80
2023/06/06 07:23:56;;;;;;;4.90;3.60;;;16.60;98.90;;;17.40;100.00;98256.38;5024902;28;20473;-80
2023/06/06 07:26:26;;;;;;;4.63;2.93;;;16.70;98.70;;;17.45;100.00;98264.44;5026990;28;20462;-80
2023/06/06 07:28:55;;;;;;;10.40;3.13;;;16.60;98.90;;;17.51;100.00;98258.25;5026719;28;20462;-80
2023/06/06 07:31:27;;;;;;;4.63;2.83;;;16.70;99.00;;;17.56;100.00;98261.03;5025740;28;20473;-80
2023/06/06 07:33:58;;;;;;;4.03;2.73;;;16.70;99.20;;;17.67;100.00;98258.69;5026130;28;20640;-79
2023/06/06 07:36:27;;;;;;;4.70;3.47;;;16.80;98.80;;;17.76;100.00;98259.94;5026501;28;21307;-80
2023/06/06 07:38:57;;;;;;;5.57;3.27;;;17.00;98.20;;;17.82;100.00;98253.75;5026765;28;20470;-80
2023/06/06 07:41:29;;;;;;;4.30;2.80;;;17.10;97.80;;;17.90;100.00;98254.22;5025287;28;20873;-80
2023/06/06 07:43:58;;;;;;;11.30;3.10;;;17.20;97.70;;;18.00;99.24;98248.38;5025311;28;20951;-80
2023/06/06 07:46:28;;;;;;;12.93;3.43;;;17.30;97.60;;;18.10;96.82;98256.53;5025633;28;20490;-80
2023/06/06 07:48:58;;;;;;;5.30;3.10;;;17.50;97.20;;;18.15;97.97;98243.44;5025946;28;20467;-80
2023/06/06 07:51:27;;;;;;;6.17;3.30;;;17.40;97.60;;;18.22;98.39;98254.72;5025033;28;20472;-80
2023/06/06 07:53:56;;;;;;;4.57;2.87;;;17.50;97.50;;;18.27;97.86;98244.22;5026421;28;20469;-80
2023/06/06 07:56:24;;;;;;;8.77;3.50;;;17.50;97.50;;;18.32;96.99;98246.19;5026296;28;20835;-80
2023/06/06 07:58:54;;;;;;;3.63;2.97;;;17.50;97.50;;;18.35;97.37;98249.16;5025378;28;20476;-80
2023/06/06 08:01:23;;;;;;;7.97;2.70;;;17.50;97.50;;;18.40;94.87;98249.25;5025521;28;20506;-80
2023/06/06 08:03:55;;;;;;;5.67;3.27;;;17.60;96.90;;;18.47;94.76;98249.94;5025954;28;20498;-80
2023/06/06 08:06:24;;;;;;;5.67;2.90;;;17.70;97.00;;;18.55;93.51;98249.63;5026289;28;20460;-80
2023/06/06 08:08:52;;;;;;;5.63;2.83;;;17.80;96.90;;;18.63;92.97;98251.13;5025480;28;20527;-80
2023/06/06 08:11:22;;;;;;;5.43;2.87;;;17.90;96.60;;;18.65;92.47;98256.19;5024550;28;20489;-80
2023/06/06 08:13:51;;;;;;;10.43;2.80;;;17.90;96.50;;;18.72;93.33;98248.91;5025184;28;20492;-80
2023/06/06 08:16:19;;;;;;;4.50;3.00;;;17.90;96.90;;;18.76;93.66;98250.88;5024721;28;20473;-80
2023/06/06 08:18:48;;;;;;;3.80;2.60;;;18.00;97.00;;;18.80;92.30;98257.31;5025414;28;20469;-80
2023/06/06 08:21:19;;;;;;;9.87;2.90;;;18.00;96.60;;;18.86;91.36;98247.59;5025387;28;21026;-80
2023/06/06 08:23:48;;;;;;;4.93;2.67;;;18.10;96.40;;;18.91;90.72;98253.03;5024509;28;20461;-80
2023/06/06 08:26:17;;;;;;;4.90;3.40;;;18.10;96.20;;;18.98;90.36;98251.03;5025187;28;20497;-80
2023/06/06 08:28:46;;;;;;;3.93;2.57;;;18.20;96.10;;;19.05;88.07;98243.75;5025188;28;21157;-80
2023/06/06 08:31:15;;;;;;;7.40;2.70;;;18.20;95.60;;;19.10;86.25;98246.50;5024782;28;21042;-80
2023/06/06 08:33:45;;;;;;;8.77;2.77;;;18.30;95.00;;;19.17;85.27;98239.19;5026985;28;20551;-81
2023/06/06 08:36:14;;;;;;;4.60;2.73;;;18.40;94.80;;;19.24;84.98;98237.22;5029747;28;20596;-80
2023/06/06 08:38:46;;;;;;;11.10;3.50;;;18.50;94.90;;;19.28;83.88;98233.03;5029372;28;20484;-79
2023/06/06 08:41:16;;;;;;;6.00;2.40;;;18.60;94.60;;;19.34;83.93;98231.28;5029507;28;20494;-79
2023/06/06 08:43:48;;;;;;;4.30;2.80;;;18.60;94.60;;;19.36;83.09;98224.72;5029018;28;20987;-80
2023/06/06 08:46:17;;;;;;;4.30;2.50;;;18.60;94.60;;;19.41;83.60;98231.97;5028546;28;20485;-80
2023/06/06 08:48:49;;;;;;;3.80;2.57;;;18.60;94.90;;;19.44;82.52;98221.69;5029628;28;20469;-80
2023/06/06 08:51:23;;;;;;;6.00;2.70;;;18.70;94.10;;;19.46;81.75;98235.53;5029409;28;20476;-80
2023/06/06 08:53:56;;;;;;;3.67;2.60;;;18.60;94.30;;;19.56;81.43;98229.59;5029739;28;20951;-80
2023/06/06 08:56:26;;;;;;;5.23;2.60;;;18.80;94.20;;;19.64;82.67;98244.31;5028307;28;20466;-80
2023/06/06 08:58:55;;;;;;;4.00;2.90;;;18.80;94.80;;;19.69;84.14;98244.38;5029918;28;20469;-82
2023/06/06 09:01:27;;;;;;;4.33;2.87;;;18.80;95.20;;;19.73;83.38;98238.34;5029757;28;20492;-80
2023/06/06 09:03:58;;;;;;;6.20;2.40;;;18.80;95.00;;;19.82;81.43;98233.47;5028573;28;20450;-80
2023/06/06 09:06:27;;;;;;;3.50;2.60;;;19.10;94.10;;;19.91;78.80;98232.00;5028853;28;20470;-80
2023/06/06 09:08:57;;;;;;;4.10;2.30;;;19.20;93.40;;;20.04;78.74;98239.63;5029157;28;20473;-80
2023/06/06 09:11:26;;;;;;;3.57;2.63;;;19.30;93.60;;;20.14;74.61;98233.66;5029085;28;20469;-80
2023/06/06 09:13:55;;;;;;;4.50;2.53;;;19.40;92.50;;;20.24;71.45;98229.31;5029615;28;21034;-80
2023/06/06 09:16:26;;;;;;;9.00;2.33;;;19.70;91.60;;;20.37;73.21;98236.19;5028357;28;20468;-79
2023/06/06 09:18:58;;;;;;;4.77;2.47;;;19.80;92.30;;;20.49;74.93;98236.84;5028716;28;20543;-80
2023/06/06 09:21:30;;;;;;;3.20;2.20;;;19.90;92.70;;;20.57;70.48;98233.78;5028423;28;20498;-80
2023/06/06 09:24:01;;;;;;;6.73;3.60;;;20.00;91.40;;;20.67;70.71;98241.06;5029498;28;20577;-80
2023/06/06 09:26:30;;;;;;;3.60;2.57;;;20.10;91.50;;;20.75;68.82;98232.69;5029601;28;20644;-80
2023/06/06 09:29:08;;;;;;;3.03;2.10;;;20.20;91.00;;;20.82;67.74;98227.97;5028416;28;20465;-80
2023/06/06 09:31:38;;;;;;;5.20;2.87;;;20.30;90.80;;;20.92;69.67;98226.25;5028071;28;20905;-80
2023/06/06 09:34:10;;;;;;;6.20;3.40;;;20.30;91.60;;;21.02;69.10;98226.34;5028525;28;20466;-80
2023/06/06 09:36:43;;;;;;;3.70;2.77;;;20.40;91.30;;;21.08;68.68;98221.88;5027133;28;20470;-80
2023/06/06 09:39:15;;;;;;;5.50;2.70;;;20.50;91.30;;;21.13;66.87;98214.00;5028608;28;20469;-80
2023/06/06 09:41:46;;;;;;;4.03;2.60;;;20.60;90.60;;;21.19;63.30;98228.97;5025599;28;20497;-80
2023/06/06 09:44:20;;;;;;;3.07;2.00;;;20.50;88.70;;;21.25;60.53;98219.97;5027749;28;20787;-80
2023/06/06 09:46:49;;;;;;;6.70;3.00;;;20.60;87.30;;;21.28;59.05;98222.13;5026674;28;20485;-80
2023/06/06 09:49:20;;;;;;;5.40;3.43;;;20.60;86.30;;;21.36;57.62;98219.00;5028023;28;20494;-80
2023/06/06 09:51:53;;;;;;;6.23;2.63;;;20.70;85.10;;;21.49;56.42;98231.09;5027715;28;20552;-80
2023/06/06 09:54:24;;;;;;;5.60;2.40;;;20.90;84.50;;;21.56;56.36;98224.53;5028611;28;20485;-80
2023/06/06 09:56:56;;;;;;;5.03;3.20;;;21.00;84.70;;;21.66;55.60;98226.47;5028175;28;20464;-80
2023/06/06 09:59:26;;;;;;;3.77;2.70;;;21.10;84.00;;;21.72;56.76;98224.66;5028319;28;20458;-80
2023/06/06 10:02:06;;;;;;;5.47;3.30;;;21.10;84.80;;;21.77;55.94;98225.50;5027863;28;20593;-80
2023/06/06 10:04:38;;;;;;;4.37;3.00;;;21.30;84.60;;;21.82;57.18;98219.41;5027412;28;20472;-80
2023/06/06 10:07:08;;;;;;;2.87;2.20;;;21.30;85.20;;;21.88;58.06;98215.72;5029557;28;20473;-80
2023/06/06 10:09:39;;;;;;;3.57;2.57;;;21.40;86.50;;;21.94;58.00;98222.72;5027966;28;20558;-80
2023/06/06 10:12:12;;;;;;;4.70;2.40;;;21.40;86.30;;;22.02;58.85;98216.91;5027123;28;20924;-80
2023/06/06 10:14:41;;;;;;;4.60;3.00;;;21.40;87.10;;;22.10;60.16;98218.31;5029004;28;20948;-80
2023/06/06 10:17:13;;;;;;;4.73;2.70;;;21.60;87.90;;;22.16;60.54;98212.75;5027439;28;20549;-80
2023/06/06 10:19:43;;;;;;;10.53;2.93;;;21.70;88.10;;;22.20;61.16;98215.72;5027477;28;20462;-80
2023/06/06 10:22:11;;;;;;;5.03;2.77;;;21.70;88.50;;;22.21;61.26;98214.66;5026990;28;20556;-80
2023/06/06 10:24:42;;;;;;;4.63;3.30;;;21.70;89.00;;;22.25;61.81;98219.19;5027426;28;20458;-80
2023/06/06 10:27:21;;;;;;;7.27;3.17;;;21.70;89.10;;;22.30;61.35;98207.78;5027647;28;20470;-80